sensor_id;sensor_type;location;lat;lon;timestamp;P1;durP1;ratioP1;P2;durP2;ratioP2
52072;SDS011;38074;51.232;6.826;2023-05-07T00:00:46;1.60;;;0.80;;
52072;SDS011;38074;51.232;6.826;2023-05-07T00:08:02;1.60;;;0.87;;
52072;SDS011;38074;51.232;6.826;2023-05-07T00:15:17;1.45;;;0.73;;
52072;SDS011;38074;51.232;6.826;2023-05-07T00:22:33;0.80;;;0.40;;
52072;SDS011;38074;51.232;6.826;2023-05-07T00:29:48;1.20;;;0.50;;
52072;SDS011;38074;51.232;6.826;2023-05-07T00:37:04;0.95;;;0.50;;
52072;SDS011;38074;51.232;6.826;2023-05-07T00:44:20;0.80;;;0.57;;
52072;SDS011;38074;51.232;6.826;2023-05-07T00:51:35;1.50;;;0.68;;
52072;SDS011;38074;51.232;6.826;2023-05-07T00:58:51;1.00;;;0.57;;
52072;SDS011;38074;51.232;6.826;2023-05-07T01:06:07;1.23;;;0.50;;
52072;SDS011;38074;51.232;6.826;2023-05-07T01:13:23;0.93;;;0.57;;
52072;SDS011;38074;51.232;6.826;2023-05-07T01:20:39;0.47;;;0.30;;
52072;SDS011;38074;51.232;6.826;2023-05-07T01:27:56;0.90;;;0.40;;
52072;SDS011;38074;51.232;6.826;2023-05-07T01:35:12;0.80;;;0.50;;
52072;SDS011;38074;51.232;6.826;2023-05-07T01:42:32;1.65;;;0.70;;
52072;SDS011;38074;51.232;6.826;2023-05-07T01:49:47;0.93;;;0.40;;
52072;SDS011;38074;51.232;6.826;2023-05-07T01:57:03;1.03;;;0.60;;
52072;SDS011;38074;51.232;6.826;2023-05-07T02:04:18;0.60;;;0.40;;
52072;SDS011;38074;51.232;6.826;2023-05-07T02:11:34;1.07;;;0.50;;
52072;SDS011;38074;51.232;6.826;2023-05-07T02:18:51;0.85;;;0.40;;
52072;SDS011;38074;51.232;6.826;2023-05-07T02:26:06;1.00;;;0.52;;
52072;SDS011;38074;51.232;6.826;2023-05-07T02:33:22;1.40;;;0.60;;
52072;SDS011;38074;51.232;6.826;2023-05-07T02:40:37;1.10;;;0.50;;
52072;SDS011;38074;51.232;6.826;2023-05-07T02:47:54;0.90;;;0.40;;
52072;SDS011;38074;51.232;6.826;2023-05-07T02:55:10;1.33;;;0.40;;
52072;SDS011;38074;51.232;6.826;2023-05-07T03:02:25;0.63;;;0.43;;
52072;SDS011;38074;51.232;6.826;2023-05-07T03:09:41;0.80;;;0.40;;
52072;SDS011;38074;51.232;6.826;2023-05-07T03:16:56;0.60;;;0.40;;
52072;SDS011;38074;51.232;6.826;2023-05-07T03:24:12;1.13;;;0.53;;
52072;SDS011;38074;51.232;6.826;2023-05-07T03:31:27;0.60;;;0.30;;
52072;SDS011;38074;51.232;6.826;2023-05-07T03:38:43;0.60;;;0.37;;
52072;SDS011;38074;51.232;6.826;2023-05-07T03:45:58;0.70;;;0.40;;
52072;SDS011;38074;51.232;6.826;2023-05-07T03:53:14;0.57;;;0.30;;
52072;SDS011;38074;51.232;6.826;2023-05-07T04:00:30;0.65;;;0.40;;
52072;SDS011;38074;51.232;6.826;2023-05-07T04:07:48;0.57;;;0.30;;
52072;SDS011;38074;51.232;6.826;2023-05-07T04:15:04;0.60;;;0.30;;
52072;SDS011;38074;51.232;6.826;2023-05-07T04:22:19;0.80;;;0.30;;
52072;SDS011;38074;51.232;6.826;2023-05-07T04:29:35;0.60;;;0.30;;
52072;SDS011;38074;51.232;6.826;2023-05-07T04:36:50;0.40;;;0.30;;
52072;SDS011;38074;51.232;6.826;2023-05-07T04:44:06;0.70;;;0.30;;
52072;SDS011;38074;51.232;6.826;2023-05-07T04:51:21;0.60;;;0.20;;
52072;SDS011;38074;51.232;6.826;2023-05-07T04:58:37;0.57;;;0.30;;
52072;SDS011;38074;51.232;6.826;2023-05-07T05:05:53;0.40;;;0.30;;
52072;SDS011;38074;51.232;6.826;2023-05-07T05:13:08;0.50;;;0.28;;
52072;SDS011;38074;51.232;6.826;2023-05-07T05:20:24;0.88;;;0.20;;
52072;SDS011;38074;51.232;6.826;2023-05-07T05:27:40;0.30;;;0.20;;
52072;SDS011;38074;51.232;6.826;2023-05-07T05:34:55;1.33;;;0.30;;
52072;SDS011;38074;51.232;6.826;2023-05-07T05:42:11;0.87;;;0.30;;
52072;SDS011;38074;51.232;6.826;2023-05-07T05:49:26;0.60;;;0.30;;
52072;SDS011;38074;51.232;6.826;2023-05-07T05:56:42;0.60;;;0.30;;
52072;SDS011;38074;51.232;6.826;2023-05-07T06:03:57;0.93;;;0.43;;
52072;SDS011;38074;51.232;6.826;2023-05-07T06:11:13;4.27;;;0.40;;
52072;SDS011;38074;51.232;6.826;2023-05-07T06:18:28;1.93;;;0.50;;
52072;SDS011;38074;51.232;6.826;2023-05-07T06:25:50;2.28;;;0.38;;
52072;SDS011;38074;51.232;6.826;2023-05-07T06:33:06;2.25;;;0.68;;
52072;SDS011;38074;51.232;6.826;2023-05-07T06:40:22;1.90;;;0.50;;
52072;SDS011;38074;51.232;6.826;2023-05-07T06:47:37;3.70;;;0.77;;
52072;SDS011;38074;51.232;6.826;2023-05-07T06:54:53;4.33;;;1.00;;
52072;SDS011;38074;51.232;6.826;2023-05-07T07:02:08;3.42;;;0.63;;
52072;SDS011;38074;51.232;6.826;2023-05-07T07:09:24;2.17;;;0.60;;
52072;SDS011;38074;51.232;6.826;2023-05-07T07:16:39;5.17;;;0.70;;
52072;SDS011;38074;51.232;6.826;2023-05-07T07:23:55;6.22;;;0.85;;
52072;SDS011;38074;51.232;6.826;2023-05-07T07:31:11;1.73;;;0.70;;
52072;SDS011;38074;51.232;6.826;2023-05-07T07:38:27;6.10;;;0.90;;
52072;SDS011;38074;51.232;6.826;2023-05-07T07:45:43;7.53;;;1.30;;
52072;SDS011;38074;51.232;6.826;2023-05-07T07:52:58;5.72;;;1.52;;
52072;SDS011;38074;51.232;6.826;2023-05-07T08:00:15;2.57;;;0.50;;
52072;SDS011;38074;51.232;6.826;2023-05-07T08:07:31;3.50;;;0.70;;
52072;SDS011;38074;51.232;6.826;2023-05-07T08:14:47;1.08;;;0.60;;
52072;SDS011;38074;51.232;6.826;2023-05-07T08:22:02;5.53;;;0.90;;
52072;SDS011;38074;51.232;6.826;2023-05-07T08:29:19;2.33;;;0.68;;
52072;SDS011;38074;51.232;6.826;2023-05-07T08:36:34;1.80;;;0.60;;
52072;SDS011;38074;51.232;6.826;2023-05-07T08:43:50;4.57;;;1.08;;
52072;SDS011;38074;51.232;6.826;2023-05-07T08:51:08;3.47;;;0.82;;
52072;SDS011;38074;51.232;6.826;2023-05-07T08:58:28;5.85;;;0.98;;
52072;SDS011;38074;51.232;6.826;2023-05-07T09:05:44;3.60;;;1.37;;
52072;SDS011;38074;51.232;6.826;2023-05-07T09:12:59;4.97;;;2.67;;
52072;SDS011;38074;51.232;6.826;2023-05-07T09:20:15;10.35;;;2.45;;
52072;SDS011;38074;51.232;6.826;2023-05-07T09:27:31;6.43;;;2.10;;
52072;SDS011;38074;51.232;6.826;2023-05-07T09:34:47;7.27;;;1.57;;
52072;SDS011;38074;51.232;6.826;2023-05-07T09:42:02;6.25;;;1.23;;
52072;SDS011;38074;51.232;6.826;2023-05-07T09:49:20;6.57;;;1.40;;
52072;SDS011;38074;51.232;6.826;2023-05-07T09:56:37;9.32;;;1.30;;
52072;SDS011;38074;51.232;6.826;2023-05-07T10:03:56;3.08;;;0.70;;
52072;SDS011;38074;51.232;6.826;2023-05-07T10:11:13;4.53;;;1.05;;
52072;SDS011;38074;51.232;6.826;2023-05-07T10:18:30;3.20;;;0.95;;
52072;SDS011;38074;51.232;6.826;2023-05-07T10:25:47;3.53;;;0.80;;
52072;SDS011;38074;51.232;6.826;2023-05-07T10:33:04;3.35;;;1.48;;
52072;SDS011;38074;51.232;6.826;2023-05-07T10:40:23;4.93;;;2.05;;
52072;SDS011;38074;51.232;6.826;2023-05-07T11:10:16;2.45;;;1.08;;
52072;SDS011;38074;51.232;6.826;2023-05-07T11:17:32;2.30;;;0.70;;
52072;SDS011;38074;51.232;6.826;2023-05-07T11:24:49;5.00;;;1.23;;
52072;SDS011;38074;51.232;6.826;2023-05-07T11:32:05;5.10;;;1.38;;
52072;SDS011;38074;51.232;6.826;2023-05-07T11:46:44;4.25;;;1.70;;
52072;SDS011;38074;51.232;6.826;2023-05-07T11:54:00;6.93;;;1.48;;
52072;SDS011;38074;51.232;6.826;2023-05-07T12:01:18;6.93;;;1.75;;
52072;SDS011;38074;51.232;6.826;2023-05-07T12:08:36;4.30;;;1.10;;
52072;SDS011;38074;51.232;6.826;2023-05-07T12:15:55;3.58;;;1.20;;
52072;SDS011;38074;51.232;6.826;2023-05-07T12:23:12;8.45;;;1.20;;
52072;SDS011;38074;51.232;6.826;2023-05-07T12:37:44;3.72;;;0.63;;
52072;SDS011;38074;51.232;6.826;2023-05-07T12:45:10;3.10;;;1.02;;
52072;SDS011;38074;51.232;6.826;2023-05-07T12:52:30;2.55;;;0.70;;
52072;SDS011;38074;51.232;6.826;2023-05-07T12:59:46;1.52;;;0.70;;
52072;SDS011;38074;51.232;6.826;2023-05-07T13:07:02;2.43;;;0.80;;
52072;SDS011;38074;51.232;6.826;2023-05-07T13:14:17;1.55;;;0.57;;
52072;SDS011;38074;51.232;6.826;2023-05-07T13:21:35;2.55;;;0.50;;
52072;SDS011;38074;51.232;6.826;2023-05-07T13:28:51;2.33;;;0.73;;
52072;SDS011;38074;51.232;6.826;2023-05-07T13:36:10;1.48;;;0.50;;
52072;SDS011;38074;51.232;6.826;2023-05-07T13:43:25;1.67;;;0.50;;
52072;SDS011;38074;51.232;6.826;2023-05-07T13:50:41;3.57;;;0.73;;
52072;SDS011;38074;51.232;6.826;2023-05-07T13:57:57;1.30;;;0.40;;
52072;SDS011;38074;51.232;6.826;2023-05-07T14:05:14;2.25;;;0.65;;
52072;SDS011;38074;51.232;6.826;2023-05-07T14:12:29;2.30;;;0.50;;
52072;SDS011;38074;51.232;6.826;2023-05-07T14:19:46;2.22;;;0.50;;
52072;SDS011;38074;51.232;6.826;2023-05-07T14:27:01;1.03;;;0.50;;
52072;SDS011;38074;51.232;6.826;2023-05-07T14:34:17;0.80;;;0.40;;
52072;SDS011;38074;51.232;6.826;2023-05-07T14:41:32;0.90;;;0.40;;
52072;SDS011;38074;51.232;6.826;2023-05-07T14:48:48;2.37;;;0.57;;
52072;SDS011;38074;51.232;6.826;2023-05-07T14:56:04;1.17;;;0.53;;
52072;SDS011;38074;51.232;6.826;2023-05-07T15:03:20;1.53;;;0.60;;
52072;SDS011;38074;51.232;6.826;2023-05-07T15:10:37;2.40;;;0.60;;
52072;SDS011;38074;51.232;6.826;2023-05-07T15:17:55;1.73;;;0.50;;
52072;SDS011;38074;51.232;6.826;2023-05-07T15:25:11;2.63;;;0.57;;
52072;SDS011;38074;51.232;6.826;2023-05-07T15:32:26;4.63;;;1.07;;
52072;SDS011;38074;51.232;6.826;2023-05-07T15:39:42;2.23;;;0.90;;
52072;SDS011;38074;51.232;6.826;2023-05-07T15:46:58;3.45;;;1.25;;
52072;SDS011;38074;51.232;6.826;2023-05-07T15:54:14;4.90;;;0.80;;
52072;SDS011;38074;51.232;6.826;2023-05-07T16:01:31;4.53;;;0.90;;
52072;SDS011;38074;51.232;6.826;2023-05-07T16:08:47;4.65;;;0.80;;
52072;SDS011;38074;51.232;6.826;2023-05-07T16:16:03;2.08;;;0.80;;
52072;SDS011;38074;51.232;6.826;2023-05-07T16:23:20;2.25;;;0.70;;
52072;SDS011;38074;51.232;6.826;2023-05-07T16:30:36;2.83;;;1.00;;
52072;SDS011;38074;51.232;6.826;2023-05-07T16:37:52;3.22;;;1.15;;
52072;SDS011;38074;51.232;6.826;2023-05-07T16:45:08;2.63;;;0.90;;
52072;SDS011;38074;51.232;6.826;2023-05-07T16:52:23;5.85;;;1.30;;
52072;SDS011;38074;51.232;6.826;2023-05-07T16:59:39;4.10;;;0.77;;
52072;SDS011;38074;51.232;6.826;2023-05-07T17:06:54;5.27;;;1.33;;
52072;SDS011;38074;51.232;6.826;2023-05-07T17:14:10;4.33;;;1.13;;
52072;SDS011;38074;51.232;6.826;2023-05-07T17:21:26;7.70;;;2.20;;
52072;SDS011;38074;51.232;6.826;2023-05-07T17:28:41;5.90;;;2.30;;
52072;SDS011;38074;51.232;6.826;2023-05-07T17:35:57;8.37;;;2.97;;
52072;SDS011;38074;51.232;6.826;2023-05-07T17:43:13;8.80;;;2.77;;
52072;SDS011;38074;51.232;6.826;2023-05-07T17:50:28;6.13;;;2.70;;
52072;SDS011;38074;51.232;6.826;2023-05-07T17:57:44;6.13;;;2.40;;
52072;SDS011;38074;51.232;6.826;2023-05-07T18:05:00;2.77;;;1.63;;
52072;SDS011;38074;51.232;6.826;2023-05-07T18:12:15;5.70;;;2.70;;
52072;SDS011;38074;51.232;6.826;2023-05-07T18:19:31;3.65;;;2.60;;
52072;SDS011;38074;51.232;6.826;2023-05-07T18:26:47;4.20;;;2.33;;
52072;SDS011;38074;51.232;6.826;2023-05-07T18:34:03;7.22;;;2.92;;
52072;SDS011;38074;51.232;6.826;2023-05-07T18:48:35;5.83;;;2.70;;
52072;SDS011;38074;51.232;6.826;2023-05-07T18:55:51;5.23;;;2.97;;
52072;SDS011;38074;51.232;6.826;2023-05-07T19:03:07;9.23;;;3.55;;
52072;SDS011;38074;51.232;6.826;2023-05-07T19:10:22;8.37;;;2.83;;
52072;SDS011;38074;51.232;6.826;2023-05-07T19:17:38;5.27;;;2.93;;
52072;SDS011;38074;51.232;6.826;2023-05-07T19:24:53;5.63;;;2.23;;
52072;SDS011;38074;51.232;6.826;2023-05-07T19:32:09;8.87;;;2.83;;
52072;SDS011;38074;51.232;6.826;2023-05-07T19:39:24;5.43;;;3.28;;
52072;SDS011;38074;51.232;6.826;2023-05-07T19:46:40;7.10;;;3.10;;
52072;SDS011;38074;51.232;6.826;2023-05-07T19:53:58;4.35;;;2.70;;
52072;SDS011;38074;51.232;6.826;2023-05-07T20:01:15;4.87;;;2.50;;
52072;SDS011;38074;51.232;6.826;2023-05-07T20:08:30;7.60;;;2.90;;
52072;SDS011;38074;51.232;6.826;2023-05-07T20:15:46;7.47;;;2.40;;
52072;SDS011;38074;51.232;6.826;2023-05-07T20:23:01;5.63;;;2.47;;
52072;SDS011;38074;51.232;6.826;2023-05-07T20:30:17;6.75;;;2.78;;
52072;SDS011;38074;51.232;6.826;2023-05-07T20:44:49;5.23;;;2.20;;
52072;SDS011;38074;51.232;6.826;2023-05-07T20:52:05;4.13;;;1.98;;
52072;SDS011;38074;51.232;6.826;2023-05-07T20:59:21;4.82;;;1.92;;
52072;SDS011;38074;51.232;6.826;2023-05-07T21:06:36;3.80;;;2.00;;
52072;SDS011;38074;51.232;6.826;2023-05-07T21:13:52;4.23;;;1.67;;
52072;SDS011;38074;51.232;6.826;2023-05-07T21:21:08;4.27;;;1.80;;
52072;SDS011;38074;51.232;6.826;2023-05-07T21:28:24;10.70;;;2.53;;
52072;SDS011;38074;51.232;6.826;2023-05-07T21:35:40;6.67;;;1.63;;
52072;SDS011;38074;51.232;6.826;2023-05-07T21:42:55;7.20;;;2.03;;
52072;SDS011;38074;51.232;6.826;2023-05-07T21:50:12;4.23;;;1.93;;
52072;SDS011;38074;51.232;6.826;2023-05-07T21:57:27;4.60;;;1.90;;
52072;SDS011;38074;51.232;6.826;2023-05-07T22:04:43;6.03;;;2.20;;
52072;SDS011;38074;51.232;6.826;2023-05-07T22:11:58;5.13;;;2.10;;
52072;SDS011;38074;51.232;6.826;2023-05-07T22:19:14;3.03;;;1.33;;
52072;SDS011;38074;51.232;6.826;2023-05-07T22:26:29;3.80;;;1.73;;
52072;SDS011;38074;51.232;6.826;2023-05-07T22:33:45;3.33;;;1.90;;
52072;SDS011;38074;51.232;6.826;2023-05-07T22:41:00;2.40;;;1.27;;
52072;SDS011;38074;51.232;6.826;2023-05-07T22:48:16;3.50;;;1.50;;
52072;SDS011;38074;51.232;6.826;2023-05-07T22:55:31;2.87;;;1.50;;
52072;SDS011;38074;51.232;6.826;2023-05-07T23:02:47;2.83;;;1.37;;
52072;SDS011;38074;51.232;6.826;2023-05-07T23:10:03;4.25;;;1.52;;
52072;SDS011;38074;51.232;6.826;2023-05-07T23:17:19;2.40;;;1.27;;
52072;SDS011;38074;51.232;6.826;2023-05-07T23:24:34;2.50;;;1.37;;
52072;SDS011;38074;51.232;6.826;2023-05-07T23:31:50;2.60;;;1.10;;
52072;SDS011;38074;51.232;6.826;2023-05-07T23:39:06;3.97;;;1.40;;
52072;SDS011;38074;51.232;6.826;2023-05-07T23:46:21;1.53;;;1.00;;
